createdAt,value
2018-11-20T00:00:00.252Z,12.45
2018-11-20T00:02:53.926Z,15.20
2018-11-20T00:06:02.848Z,16.05
2018-11-20T00:08:53.110Z,13.05
2018-11-20T00:11:47.522Z,13.72
2018-11-20T00:14:46.513Z,18.25
2018-11-20T00:17:34.176Z,14.18
2018-11-20T00:20:30.288Z,14.13
2018-11-20T00:23:23.865Z,15.05
2018-11-20T00:26:15.633Z,14.28
2018-11-20T00:28:58.087Z,13.53
2018-11-20T00:32:00.459Z,13.50
2018-11-20T00:34:52.734Z,15.88
2018-11-20T00:37:57.623Z,17.52
2018-11-20T00:40:50.079Z,12.75
2018-11-20T00:43:55.043Z,12.60
2018-11-20T00:46:57.576Z,14.05
2018-11-20T00:49:52.180Z,14.60
2018-11-20T00:52:46.466Z,12.43
2018-11-20T00:56:21.204Z,13.83
2018-11-20T00:59:22.967Z,16.32
2018-11-20T01:02:14.251Z,15.70
2018-11-20T01:05:19.276Z,15.60
2018-11-20T01:08:18.965Z,12.33
2018-11-20T01:11:10.063Z,17.07
2018-11-20T01:14:04.767Z,14.85
2018-11-20T01:17:00.793Z,16.12
2018-11-20T01:19:57.212Z,14.23
2018-11-20T01:22:50.785Z,15.30
2018-11-20T01:25:43.018Z,12.18
2018-11-20T01:28:33.880Z,17.57
2018-11-20T01:31:29.748Z,16.67
2018-11-20T01:34:28.852Z,14.78
2018-11-20T01:37:25.688Z,16.30
2018-11-20T01:40:05.768Z,15.00
2018-11-20T01:43:14.480Z,11.93
2018-11-20T01:46:09.824Z,18.17
2018-11-20T01:48:52.939Z,15.20
2018-11-20T01:51:50.993Z,16.32
2018-11-20T01:55:02.195Z,15.53
2018-11-20T01:58:01.601Z,17.10
2018-11-20T02:00:53.841Z,15.55
2018-11-20T02:03:45.318Z,12.45
2018-11-20T02:06:44.565Z,18.23
2018-11-20T02:09:41.007Z,13.75
2018-11-20T02:12:47.568Z,17.10
2018-11-20T02:15:34.996Z,18.98
2018-11-20T02:18:33.686Z,13.60
2018-11-20T02:21:33.096Z,12.73
2018-11-20T02:24:23.687Z,12.93
2018-11-20T02:27:14.807Z,23.40
2018-11-20T02:30:11.140Z,16.30
2018-11-20T02:33:08.130Z,18.60
2018-11-20T02:36:11.245Z,15.48
2018-11-20T09:59:12.463Z,27.60
2018-11-20T10:02:11.103Z,30.10
2018-11-20T10:04:51.683Z,30.48
2018-11-20T10:07:59.265Z,25.17
2018-11-20T10:10:57.972Z,24.10
2018-11-20T10:14:03.289Z,32.60
2018-11-20T10:17:04.548Z,23.22
2018-11-20T10:19:56.009Z,33.40
2018-11-20T10:22:47.598Z,32.17
2018-11-20T10:25:41.210Z,29.63
2018-11-20T10:28:33.311Z,30.23
2018-11-20T10:31:37.406Z,28.23
2018-11-20T10:34:39.120Z,27.95
2018-11-20T10:37:25.733Z,28.47
2018-11-20T10:40:26.693Z,26.65
2018-11-20T10:43:37.192Z,28.15
2018-11-20T10:46:28.443Z,24.32
2018-11-20T10:49:39.092Z,25.23
2018-11-20T10:52:34.590Z,24.43
2018-11-20T10:55:41.927Z,28.45
2018-11-20T10:58:33.007Z,24.02
2018-11-20T11:01:40.726Z,30.72
2018-11-20T11:04:38.908Z,26.23
2018-11-20T11:07:29.791Z,32.90
2018-11-20T11:10:12.149Z,33.50
2018-11-20T11:13:04.434Z,31.62
2018-11-20T11:15:55.220Z,25.00
2018-11-20T11:18:52.279Z,23.47
2018-11-20T11:21:49.671Z,28.30
2018-11-20T11:24:57.003Z,26.55
2018-11-20T11:28:04.857Z,30.82
2018-11-20T11:31:03.255Z,22.67
2018-11-20T11:33:54.186Z,28.15
2018-11-20T11:36:42.470Z,26.70
2018-11-20T11:39:43.372Z,22.65
2018-11-20T11:42:34.014Z,25.65
2018-11-20T11:45:17.692Z,29.20
2018-11-20T11:48:14.034Z,28.47
2018-11-20T11:51:14.478Z,34.80
2018-11-20T11:54:06.912Z,27.58
2018-11-20T11:57:02.096Z,21.85
2018-11-20T11:59:53.946Z,28.83
2018-11-20T12:05:46.812Z,25.75
2018-11-20T12:08:57.079Z,29.32
2018-11-20T12:11:39.916Z,27.87
2018-11-20T12:14:40.742Z,35.03
2018-11-20T12:17:33.092Z,27.10
2018-11-20T12:20:24.021Z,26.12
2018-11-20T12:23:31.409Z,28.02
2018-11-20T12:26:25.377Z,26.97
2018-11-20T12:29:23.842Z,26.17
2018-11-20T12:32:26.647Z,30.15
2018-11-20T12:35:21.076Z,26.97
2018-11-20T12:38:09.998Z,27.17
2018-11-20T12:41:01.678Z,31.17
2018-11-20T12:43:54.850Z,20.62
2018-11-20T12:46:46.212Z,32.33
2018-11-20T12:49:54.029Z,29.85
2018-11-20T12:52:52.586Z,26.55
2018-11-20T12:55:43.534Z,26.93
2018-11-20T12:58:34.609Z,27.52
2018-11-20T13:01:24.746Z,26.40
2018-11-20T13:04:15.139Z,28.35
2018-11-20T13:07:13.261Z,27.85
2018-11-20T13:10:04.761Z,39.08
2018-11-20T13:12:56.597Z,28.10
2018-11-20T13:16:00.248Z,29.45
2018-11-20T13:18:54.216Z,33.45
2018-11-20T13:21:44.936Z,33.98
2018-11-20T13:24:37.240Z,27.87
2018-11-20T13:27:28.144Z,29.45
2018-11-20T13:30:19.178Z,30.23
2018-11-20T13:33:10.098Z,36.70
2018-11-20T13:36:01.629Z,28.35
2018-11-20T13:39:06.121Z,31.87
2018-11-20T13:41:57.613Z,32.10
2018-11-20T13:44:55.710Z,38.75
2018-11-20T13:47:46.310Z,38.05
2018-11-20T13:50:39.065Z,40.23
2018-11-20T13:53:36.881Z,32.70
2018-11-20T13:56:44.204Z,35.68
2018-11-20T13:59:36.169Z,36.40
2018-11-20T14:02:26.283Z,31.90
2018-11-20T14:05:22.311Z,43.50
2018-11-20T14:08:21.896Z,42.62
2018-11-20T14:11:14.869Z,54.20
2018-11-20T14:14:06.466Z,51.95
2018-11-20T14:16:57.433Z,48.42
2018-11-20T14:20:05.392Z,52.45
2018-11-20T14:23:04.074Z,78.17
2018-11-20T14:26:03.089Z,69.25
2018-11-20T14:28:50.505Z,82.92
2018-11-20T14:32:01.252Z,79.07
2018-11-20T14:35:02.244Z,70.28
2018-11-20T14:38:00.535Z,72.05
2018-11-20T14:40:51.120Z,67.00
2018-11-20T14:43:56.352Z,84.05
2018-11-20T14:46:47.472Z,79.00
2018-11-20T14:49:49.225Z,74.58
2018-11-20T14:52:51.304Z,66.97
2018-11-20T14:55:52.272Z,86.78
2018-11-20T15:01:26.169Z,85.00
2018-11-20T15:04:18.339Z,86.17
2018-11-20T15:07:19.385Z,65.25
2018-11-20T15:10:10.976Z,72.22
2018-11-20T15:13:04.293Z,63.65
2018-11-20T15:15:58.485Z,72.60
2018-11-20T15:19:13.250Z,73.80
2018-11-20T15:22:08.772Z,84.85
2018-11-20T15:25:03.961Z,64.97
2018-11-20T15:28:00.117Z,75.87
2018-11-20T15:30:58.310Z,70.80
2018-11-20T15:33:43.798Z,70.75
2018-11-20T15:36:33.569Z,69.27
2018-11-20T15:39:17.436Z,68.62
2018-11-20T15:42:13.933Z,69.42
2018-11-20T15:45:23.983Z,78.95
2018-11-20T15:48:24.855Z,69.77
2018-11-20T15:51:19.522Z,55.50
2018-11-20T15:54:21.602Z,69.72
2018-11-20T15:57:11.069Z,48.25
2018-11-20T16:00:03.239Z,37.17
2018-11-20T16:02:55.177Z,50.85
2018-11-20T16:05:46.880Z,45.98
2018-11-20T16:08:54.813Z,46.70
2018-11-20T16:11:47.375Z,49.18
2018-11-20T16:14:42.683Z,42.30
2018-11-20T16:17:41.099Z,41.95
2018-11-20T16:20:39.562Z,33.48
2018-11-20T16:23:34.986Z,31.15
2018-11-20T16:26:30.810Z,35.48
2018-11-20T16:29:27.864Z,39.08
2018-11-20T16:32:19.056Z,45.15
2018-11-20T16:35:00.653Z,42.45
2018-11-20T16:38:07.679Z,42.25
2018-11-20T16:41:06.049Z,29.80
2018-11-20T16:44:01.228Z,39.48
2018-11-20T16:46:56.950Z,36.23
2018-11-20T16:49:53.015Z,43.63
2018-11-20T16:52:52.579Z,44.23
2018-11-20T16:55:46.725Z,30.50
2018-11-20T16:58:42.606Z,41.00
2018-11-20T17:01:36.237Z,34.38
2018-11-20T17:04:28.514Z,44.18
2018-11-20T17:07:30.653Z,40.95
2018-11-20T17:10:17.407Z,34.43
2018-11-20T17:13:10.417Z,37.63
2018-11-20T17:15:59.202Z,30.97
2018-11-20T17:18:50.788Z,35.43
2018-11-20T17:21:41.418Z,42.30
2018-11-20T17:24:32.542Z,39.65
2018-11-20T17:27:24.244Z,37.30
2018-11-20T17:30:14.851Z,36.90
2018-11-20T17:33:07.704Z,39.33
2018-11-20T17:36:08.187Z,42.45
2018-11-20T17:38:59.341Z,36.13
2018-11-20T17:41:45.744Z,25.55
2018-11-20T17:44:38.613Z,36.40
2018-11-20T17:47:43.120Z,32.35
2018-11-20T17:50:27.369Z,36.85
2018-11-20T17:53:19.830Z,38.35
2018-11-20T17:56:16.876Z,36.63
2018-11-20T17:59:08.194Z,37.10
2018-11-20T18:01:59.103Z,33.67
2018-11-20T18:04:42.741Z,48.02
2018-11-20T18:07:45.343Z,41.28
2018-11-20T18:10:36.756Z,37.20
2018-11-20T18:13:18.071Z,35.88
2018-11-20T18:16:16.848Z,25.45
2018-11-20T18:19:04.684Z,31.45
2018-11-20T18:22:02.760Z,36.38
2018-11-20T18:24:57.627Z,38.50
2018-11-20T18:27:52.331Z,32.50
2018-11-20T18:30:44.336Z,32.90
2018-11-20T18:33:33.745Z,25.65
2018-11-20T18:36:21.176Z,32.70
2018-11-20T18:39:32.066Z,30.32
2018-11-20T18:42:24.592Z,34.03
2018-11-20T18:45:16.935Z,25.75
2018-11-20T18:48:10.509Z,34.55
2018-11-20T18:51:01.715Z,38.42
2018-11-20T18:53:53.038Z,36.30
2018-11-20T18:56:46.094Z,27.10
2018-11-20T18:59:56.984Z,35.13
2018-11-20T19:02:48.287Z,30.05
2018-11-20T19:05:35.803Z,25.55
2018-11-20T19:08:37.156Z,29.55
2018-11-20T19:11:42.404Z,33.00
2018-11-20T19:14:33.518Z,29.52
2018-11-20T19:17:31.617Z,29.85
2018-11-20T19:20:30.597Z,27.25
2018-11-20T19:23:29.214Z,34.43
2018-11-20T19:26:20.905Z,35.33
2018-11-20T19:29:24.961Z,33.50
2018-11-20T19:32:14.810Z,28.17
2018-11-20T19:35:10.418Z,32.08
2018-11-20T19:37:54.060Z,29.52
2018-11-20T19:41:01.238Z,29.63
2018-11-20T19:43:56.860Z,29.57
2018-11-20T19:46:52.203Z,30.20
2018-11-20T19:49:35.304Z,32.28
2018-11-20T19:52:26.511Z,30.72
2018-11-20T19:55:29.164Z,28.95
2018-11-20T19:58:24.306Z,29.30
2018-11-20T20:01:15.544Z,31.40
2018-11-20T20:04:04.496Z,28.47
2018-11-20T20:06:54.164Z,32.20
2018-11-20T20:09:45.326Z,32.33
2018-11-20T20:12:34.688Z,28.10
2018-11-20T20:15:35.729Z,31.37
2018-11-20T20:18:36.657Z,27.77
2018-11-20T20:21:29.187Z,29.80
2018-11-20T20:24:32.280Z,36.75
2018-11-20T20:27:23.493Z,25.72
2018-11-20T20:30:13.994Z,32.53
2018-11-20T20:33:17.945Z,38.15
2018-11-20T20:36:09.508Z,42.67
2018-11-20T20:39:17.539Z,28.83
2018-11-20T20:42:08.857Z,32.53
2018-11-20T20:45:09.888Z,27.00
2018-11-20T20:47:54.683Z,36.15
2018-11-20T20:50:55.890Z,30.50
2018-11-20T20:53:47.994Z,37.28
2018-11-20T20:56:42.601Z,27.30
2018-11-20T20:59:35.796Z,30.57
2018-11-20T21:02:31.052Z,38.50
2018-11-20T21:05:23.595Z,37.30
2018-11-20T21:08:15.220Z,31.02
2018-11-20T21:11:19.626Z,33.98
2018-11-20T21:14:19.107Z,40.40
2018-11-20T21:17:17.288Z,36.63
2018-11-20T21:20:18.759Z,33.08
2018-11-20T21:23:16.787Z,35.48
2018-11-20T21:26:04.104Z,33.85
2018-11-20T21:28:55.394Z,41.77
2018-11-20T21:32:02.893Z,36.88
2018-11-20T21:35:10.066Z,38.40
2018-11-20T21:38:01.115Z,31.85
2018-11-20T21:41:02.945Z,43.35
2018-11-20T21:43:47.789Z,38.13
2018-11-20T21:46:55.274Z,35.98
2018-11-20T21:49:57.383Z,40.25
2018-11-20T21:52:48.691Z,39.38
2018-11-20T21:55:47.385Z,35.88
2018-11-20T21:58:48.920Z,33.33
2018-11-20T22:01:41.483Z,38.58
2018-11-20T22:04:26.136Z,41.08
2018-11-20T22:07:34.043Z,37.73
2018-11-20T22:10:29.000Z,34.73
2018-11-20T22:13:19.891Z,35.23
2018-11-20T22:16:11.209Z,33.75
2018-11-20T22:19:02.809Z,37.23
2018-11-20T22:21:54.153Z,42.25
2018-11-20T22:24:58.738Z,40.30
2018-11-20T22:28:06.959Z,40.10
2018-11-20T22:30:52.364Z,37.67
2018-11-20T22:33:46.203Z,34.08
2018-11-20T22:36:40.968Z,45.88
2018-11-20T22:39:25.559Z,47.85
2018-11-20T22:42:23.220Z,39.60
2018-11-20T22:45:15.281Z,42.83
2018-11-20T22:48:22.972Z,44.88
2018-11-20T22:51:14.420Z,43.63
2018-11-20T22:54:12.954Z,38.70
2018-11-20T22:56:59.940Z,41.83
2018-11-20T22:59:54.942Z,45.40
2018-11-20T23:02:39.828Z,44.65
2018-11-20T23:05:22.690Z,44.05
2018-11-20T23:07:56.490Z,45.23
2018-11-20T23:10:29.681Z,46.65
2018-11-20T23:13:02.976Z,54.53
2018-11-20T23:15:35.842Z,51.42
2018-11-20T23:18:08.959Z,46.50
2018-11-20T23:20:41.454Z,47.78
2018-11-20T23:23:14.346Z,44.35
2018-11-20T23:25:47.602Z,40.58
2018-11-20T23:28:20.779Z,42.45
2018-11-20T23:30:53.299Z,47.03
2018-11-20T23:33:26.183Z,49.65
2018-11-20T23:35:59.079Z,40.52
2018-11-20T23:38:32.190Z,41.25
2018-11-20T23:41:05.036Z,43.63
2018-11-20T23:43:37.821Z,45.92
2018-11-20T23:46:11.009Z,44.63
2018-11-20T23:48:44.291Z,39.48
2018-11-20T23:51:17.600Z,44.70
2018-11-20T23:53:49.650Z,45.48
2018-11-20T23:56:22.770Z,42.40
2018-11-20T23:58:54.855Z,45.35
